Time;durP1;ratioP1;P1;durP2;ratioP2;P2;SDS_P1;SDS_P2;PMS_P1;PMS_P2;Temp;Humidity;BMP_temperature;BMP_pressure;BME280_temperature;BME280_humidity;BME280_pressure;Samples;Min_cycle;Max_cycle;Signal;HPM_P1;HPM_P2
2021/06/07 00:01:53;;;;;;;23.10;20.27;;;461.00;2380.80;;;;;;5074963;28;20035;-84
2021/06/07 00:04:20;;;;;;;22.85;20.45;;;461.00;2380.80;;;;;;5075219;28;20508;-84
2021/06/07 00:06:46;;;;;;;21.73;18.92;;;461.00;2380.80;;;;;;5074751;28;20037;-84
2021/06/07 00:09:14;;;;;;;21.13;18.92;;;460.90;2380.80;;;;;;5074706;28;20182;-84
2021/06/07 00:11:42;;;;;;;20.75;18.55;;;461.10;2380.80;;;;;;5074949;28;20113;-85
2021/06/07 00:14:08;;;;;;;19.83;17.83;;;461.00;2380.80;;;;;;5074607;28;20087;-84
2021/06/07 00:16:35;;;;;;;18.63;16.63;;;460.90;2380.80;;;;;;5074898;28;20070;-84
2021/06/07 00:19:01;;;;;;;17.33;15.60;;;460.90;2380.80;;;;;;5074809;28;20440;-85
2021/06/07 00:21:29;;;;;;;20.00;17.75;;;460.90;2380.80;;;;;;5074028;28;20051;-84
2021/06/07 00:23:58;;;;;;;22.08;17.50;;;460.90;2380.80;;;;;;5074529;28;20196;-85
2021/06/07 00:26:24;;;;;;;24.27;19.10;;;460.80;2380.80;;;;;;5075134;28;20144;-84
2021/06/07 00:28:50;;;;;;;19.50;17.23;;;460.80;2380.80;;;;;;5074788;28;20025;-84
2021/06/07 00:31:16;;;;;;;23.15;20.52;;;460.80;2380.80;;;;;;5074503;28;20131;-85
2021/06/07 00:33:42;;;;;;;24.80;21.65;;;460.90;2380.80;;;;;;5074643;28;20035;-84
2021/06/07 00:36:09;;;;;;;24.75;21.10;;;460.80;2380.80;;;;;;5074389;28;20035;-85
2021/06/07 00:38:36;;;;;;;26.10;21.92;;;460.80;2380.80;;;;;;5074358;28;20048;-84
2021/06/07 00:41:05;;;;;;;24.80;22.08;;;460.80;2380.80;;;;;;5075758;28;20029;-85
2021/06/07 00:43:31;;;;;;;25.08;21.45;;;460.90;2380.80;;;;;;5074197;28;20036;-84
2021/06/07 00:45:58;;;;;;;23.27;21.05;;;460.80;2380.80;;;;;;5075293;28;20123;-85
2021/06/07 00:48:24;;;;;;;23.25;20.67;;;460.90;2380.80;;;;;;5075481;28;20031;-85
2021/06/07 00:51:05;;;;;;;23.58;21.05;;;460.90;2380.80;;;;;;5074535;28;20477;-86
2021/06/07 00:53:32;;;;;;;31.60;19.67;;;460.80;2380.80;;;;;;5074157;28;20031;-85
2021/06/07 00:56:01;;;;;;;21.67;19.45;;;460.80;2380.80;;;;;;5075100;28;20112;-85
2021/06/07 00:58:33;;;;;;;26.42;21.70;;;460.80;2380.80;;;;;;5073581;28;20024;-85
2021/06/07 01:01:00;;;;;;;25.70;21.98;;;460.90;2380.80;;;;;;5073716;28;20031;-85
2021/06/07 01:03:27;;;;;;;21.42;19.13;;;460.80;2380.80;;;;;;5073523;28;20036;-85
2021/06/07 01:05:53;;;;;;;25.27;22.88;;;460.80;2380.80;;;;;;5073228;28;20097;-84
2021/06/07 01:08:20;;;;;;;26.05;20.98;;;460.90;2380.80;;;;;;5072721;28;20024;-84
2021/06/07 01:10:47;;;;;;;29.63;20.88;;;460.80;2380.80;;;;;;5073556;28;20028;-84
2021/06/07 01:13:16;;;;;;;26.38;20.80;;;460.80;2380.80;;;;;;5074360;28;20044;-85
2021/06/07 01:15:43;;;;;;;24.20;19.65;;;460.80;2380.80;;;;;;5073435;28;20056;-83
2021/06/07 01:18:10;;;;;;;22.35;18.70;;;436.10;2355.20;;;;;;5073207;28;20024;-85
2021/06/07 01:20:36;;;;;;;24.27;19.42;;;436.10;2355.20;;;;;;5073719;28;20033;-84
2021/06/07 01:23:02;;;;;;;20.15;18.08;;;460.80;2380.80;;;;;;5073215;28;20029;-84
2021/06/07 01:25:33;;;;;;;21.35;19.30;;;436.10;2355.20;;;;;;5073116;28;20031;-84
2021/06/07 01:27:59;;;;;;;24.10;20.15;;;435.90;2355.20;;;;;;5073236;28;20112;-85
2021/06/07 01:30:33;;;;;;;21.67;19.50;;;436.10;2355.20;;;;;;5073220;28;20115;-84
2021/06/07 01:33:00;;;;;;;21.55;19.30;;;436.10;2355.20;;;;;;5073079;28;20032;-85
2021/06/07 01:35:27;;;;;;;23.27;18.73;;;436.10;2355.20;;;;;;5072741;28;20029;-85
2021/06/07 01:37:55;;;;;;;21.45;19.25;;;436.10;2355.20;;;;;;5072959;28;20029;-84
2021/06/07 01:40:27;;;;;;;20.95;18.65;;;436.10;2355.20;;;;;;5073047;28;20024;-84
2021/06/07 01:42:53;;;;;;;20.58;18.48;;;435.90;2355.20;;;;;;5073032;28;20036;-86
2021/06/07 01:45:23;;;;;;;20.05;18.20;;;435.90;2355.20;;;;;;5073176;28;20025;-85
2021/06/07 01:47:49;;;;;;;19.90;17.50;;;435.90;2355.20;;;;;;5072882;28;20109;-83
2021/06/07 01:50:15;;;;;;;19.23;17.23;;;435.90;2355.20;;;;;;5073062;28;20071;-83
2021/06/07 01:52:45;;;;;;;19.92;16.30;;;435.90;2355.20;;;;;;5072861;28;20025;-83
2021/06/07 01:55:16;;;;;;;17.67;15.07;;;435.90;2355.20;;;;;;5072608;28;20020;-83
2021/06/07 01:57:43;;;;;;;18.20;14.75;;;435.90;2355.20;;;;;;5073273;28;20025;-83
2021/06/07 02:00:45;;;;;;;18.88;16.98;;;435.90;2355.20;;;;;;5072711;28;20028;-83
2021/06/07 02:03:13;;;;;;;19.52;17.63;;;435.80;2355.20;;;;;;5068598;28;20040;-84
2021/06/07 02:05:41;;;;;;;21.20;17.90;;;435.90;2355.20;;;;;;5072942;28;20029;-86
2021/06/07 02:08:11;;;;;;;21.67;18.45;;;435.90;2355.20;;;;;;5072543;28;20031;-84
2021/06/07 02:10:40;;;;;;;21.38;19.15;;;435.80;2355.20;;;;;;5073062;28;20025;-83
2021/06/07 02:13:08;;;;;;;18.92;16.70;;;435.80;2355.20;;;;;;5072716;28;20458;-83
2021/06/07 02:15:34;;;;;;;19.73;16.77;;;435.80;2355.20;;;;;;5072509;28;20030;-83
2021/06/07 02:18:02;;;;;;;18.80;17.00;;;435.90;2355.20;;;;;;5072750;28;20067;-85
2021/06/07 02:20:28;;;;;;;18.95;17.08;;;435.90;2355.20;;;;;;5075184;28;20426;-84
2021/06/07 02:22:54;;;;;;;18.13;16.33;;;435.80;2355.20;;;;;;5076780;28;20024;-86
2021/06/07 02:25:22;;;;;;;18.20;16.30;;;435.90;2355.20;;;;;;5076855;28;20466;-84
2021/06/07 02:27:49;;;;;;;22.65;17.00;;;435.90;2355.20;;;;;;5076573;28;20021;-86
2021/06/07 02:30:24;;;;;;;19.23;16.63;;;435.90;2355.20;;;;;;5076262;28;20462;-86
2021/06/07 02:32:51;;;;;;;19.77;17.65;;;435.90;2355.20;;;;;;5076820;28;20666;-84
2021/06/07 02:35:19;;;;;;;23.33;18.02;;;435.90;2355.20;;;;;;5076565;28;20055;-85
2021/06/07 02:37:46;;;;;;;24.05;18.02;;;435.80;2355.20;;;;;;5076554;28;20537;-86
2021/06/07 02:40:15;;;;;;;21.92;18.40;;;435.80;2355.20;;;;;;5076703;28;20462;-86
2021/06/07 02:42:42;;;;;;;21.85;19.38;;;435.90;2355.20;;;;;;5076321;28;20457;-85
2021/06/07 02:45:11;;;;;;;21.52;19.27;;;435.80;2355.20;;;;;;5075985;28;20037;-85
2021/06/07 02:47:39;;;;;;;22.35;19.95;;;435.80;2355.20;;;;;;5076519;28;20449;-86
2021/06/07 02:50:09;;;;;;;25.38;20.38;;;435.80;2355.20;;;;;;5076330;28;20408;-86
2021/06/07 02:52:36;;;;;;;22.45;19.83;;;435.80;2355.20;;;;;;5076298;28;20031;-85
2021/06/07 02:55:02;;;;;;;25.98;21.25;;;435.80;2355.20;;;;;;5076394;28;20025;-86
2021/06/07 02:57:28;;;;;;;29.10;21.23;;;435.80;2355.20;;;;;;5076007;28;20419;-86
2021/06/07 02:59:54;;;;;;;24.08;21.75;;;435.80;2355.20;;;;;;5076343;28;20081;-86
2021/06/07 03:02:20;;;;;;;23.45;21.15;;;435.80;2355.20;;;;;;5076179;28;20155;-87
2021/06/07 03:04:46;;;;;;;22.50;20.33;;;435.80;2355.20;;;;;;5075862;28;20060;-86
2021/06/07 03:07:11;;;;;;;22.35;20.15;;;435.70;2355.20;;;;;;5076154;28;20028;-86
2021/06/07 03:09:37;;;;;;;21.92;19.50;;;435.70;2355.20;;;;;;5076013;28;20027;-86
2021/06/07 03:12:03;;;;;;;21.05;18.33;;;435.70;2355.20;;;;;;5075987;28;20108;-86
2021/06/07 03:14:29;;;;;;;19.77;17.48;;;435.80;2355.20;;;;;;5075615;28;20055;-86
2021/06/07 03:16:55;;;;;;;19.27;17.17;;;435.80;2355.20;;;;;;5075994;28;20550;-85
2021/06/07 03:19:21;;;;;;;22.17;19.85;;;435.80;2355.20;;;;;;5076120;28;20025;-87
2021/06/07 03:21:47;;;;;;;18.33;16.42;;;435.60;2355.20;;;;;;5076249;28;20028;-86
2021/06/07 03:24:13;;;;;;;19.00;17.02;;;435.60;2355.20;;;;;;5075638;28;20079;-85
2021/06/07 03:26:39;;;;;;;25.02;16.77;;;435.80;2355.20;;;;;;5075904;28;20029;-87
2021/06/07 03:29:05;;;;;;;18.83;16.02;;;435.70;2355.20;;;;;;5075764;28;20020;-86
2021/06/07 03:31:31;;;;;;;18.17;15.38;;;435.60;2355.20;;;;;;5074889;28;20063;-87
2021/06/07 03:33:57;;;;;;;20.52;17.13;;;435.60;2355.20;;;;;;5075693;28;20099;-85
2021/06/07 03:36:23;;;;;;;18.60;16.45;;;435.60;2355.20;;;;;;5075856;28;20020;-85
2021/06/07 03:38:49;;;;;;;18.65;16.65;;;435.70;2355.20;;;;;;5075479;28;20035;-85
2021/06/07 03:41:15;;;;;;;17.58;14.82;;;435.80;2355.20;;;;;;5075490;28;20382;-85
2021/06/07 03:43:41;;;;;;;17.02;15.02;;;435.80;2355.20;;;;;;5075397;28;20029;-86
2021/06/07 03:46:07;;;;;;;16.92;15.35;;;435.80;2355.20;;;;;;5075222;28;20036;-86
2021/06/07 03:48:33;;;;;;;19.02;17.02;;;435.80;2355.20;;;;;;5075419;28;20024;-87
2021/06/07 03:51:00;;;;;;;19.60;17.50;;;435.70;2355.20;;;;;;5076416;28;20071;-86
2021/06/07 03:53:26;;;;;;;18.60;16.70;;;461.10;2380.80;;;;;;5075001;28;20032;-86
2021/06/07 03:55:52;;;;;;;22.98;18.35;;;435.80;2355.20;;;;;;5075130;28;20127;-85
2021/06/07 03:58:18;;;;;;;22.17;17.17;;;435.80;2355.20;;;;;;5075131;28;20031;-86
2021/06/07 04:00:44;;;;;;;18.63;16.50;;;435.80;2355.20;;;;;;5075034;28;20044;-86
2021/06/07 04:03:11;;;;;;;18.77;17.02;;;435.80;2355.20;;;;;;5075074;28;20040;-86
2021/06/07 04:05:38;;;;;;;23.48;17.10;;;435.80;2355.20;;;;;;5075048;28;20124;-85
2021/06/07 04:08:10;;;;;;;19.17;17.27;;;435.60;2355.20;;;;;;5074952;28;20039;-85
2021/06/07 04:10:37;;;;;;;20.80;18.60;;;435.80;2355.20;;;;;;5074990;28;20054;-87
2021/06/07 04:13:03;;;;;;;19.48;16.00;;;436.10;2355.20;;;;;;5074742;28;20051;-85
2021/06/07 04:15:30;;;;;;;17.75;16.00;;;435.90;2355.20;;;;;;5074790;28;20025;-86
2021/06/07 04:17:57;;;;;;;17.20;15.25;;;435.90;2355.20;;;;;;5076156;28;20033;-84
2021/06/07 04:20:26;;;;;;;22.05;17.67;;;435.90;2355.20;;;;;;5075958;28;20027;-84
2021/06/07 04:22:52;;;;;;;19.05;16.98;;;435.90;2355.20;;;;;;5074771;28;20021;-83
2021/06/07 04:25:20;;;;;;;17.85;15.82;;;436.10;2355.20;;;;;;5074621;28;20025;-84
2021/06/07 04:27:46;;;;;;;17.00;15.10;;;436.10;2355.20;;;;;;5074211;28;20162;-85
2021/06/07 04:30:16;;;;;;;17.73;15.93;;;435.40;2355.20;;;;;;5074671;28;20028;-87
2021/06/07 04:32:42;;;;;;;18.80;16.80;;;436.10;2355.20;;;;;;5074793;28;20528;-83
2021/06/07 04:35:11;;;;;;;18.42;16.48;;;436.10;2355.20;;;;;;5074231;28;20412;-84
2021/06/07 04:37:42;;;;;;;26.98;19.20;;;436.00;2355.20;;;;;;5074062;28;20025;-84
2021/06/07 04:40:11;;;;;;;22.30;17.27;;;435.90;2355.20;;;;;;5074343;28;20077;-84
2021/06/07 04:42:38;;;;;;;19.90;16.52;;;435.90;2355.20;;;;;;5073286;28;20042;-85
2021/06/07 04:45:07;;;;;;;22.17;17.63;;;435.90;2355.20;;;;;;5073989;28;20526;-85
2021/06/07 04:47:33;;;;;;;20.45;17.05;;;436.10;2355.20;;;;;;5074249;28;20029;-86
2021/06/07 04:49:59;;;;;;;22.73;18.88;;;436.10;2355.20;;;;;;5073951;28;20024;-83
2021/06/07 04:52:25;;;;;;;24.15;18.80;;;435.90;2355.20;;;;;;5074055;28;20082;-84
2021/06/07 04:54:50;;;;;;;22.10;17.65;;;435.90;2355.20;;;;;;5074244;28;20032;-85
2021/06/07 04:57:16;;;;;;;20.02;17.25;;;435.80;2355.20;;;;;;5073904;28;20373;-85
2021/06/07 04:59:42;;;;;;;24.13;18.75;;;435.90;2355.20;;;;;;5074169;28;20476;-86
2021/06/07 05:02:08;;;;;;;22.77;18.23;;;436.10;2355.20;;;;;;5073939;28;20021;-84
2021/06/07 05:04:34;;;;;;;21.17;18.42;;;436.10;2355.20;;;;;;5073762;28;20089;-85
2021/06/07 05:07:00;;;;;;;26.77;17.40;;;435.90;2355.20;;;;;;5074029;28;20032;-84
2021/06/07 05:09:26;;;;;;;21.90;17.15;;;436.00;2355.20;;;;;;5073672;28;20033;-84
2021/06/07 05:11:52;;;;;;;28.73;18.17;;;436.10;2355.20;;;;;;5073620;28;20064;-85
2021/06/07 05:14:17;;;;;;;19.95;17.85;;;460.80;2380.80;;;;;;5073475;28;20508;-87
2021/06/07 05:16:43;;;;;;;29.75;17.17;;;460.80;2380.80;;;;;;5073560;28;20029;-86
2021/06/07 05:19:09;;;;;;;20.55;17.48;;;460.90;2380.80;;;;;;5073517;28;20047;-85
2021/06/07 05:21:35;;;;;;;24.30;18.27;;;461.00;2380.80;;;;;;5073488;28;20074;-85
2021/06/07 05:24:01;;;;;;;24.08;18.15;;;460.90;2380.80;;;;;;5073039;28;20082;-84
2021/06/07 05:26:27;;;;;;;19.17;17.23;;;460.90;2380.80;;;;;;5073176;28;20020;-86
2021/06/07 05:28:52;;;;;;;23.73;19.45;;;461.00;2380.80;;;;;;5074641;28;20032;-85
2021/06/07 05:31:18;;;;;;;21.83;19.42;;;461.10;2380.80;;;;;;5073111;28;20039;-85
2021/06/07 05:33:44;;;;;;;22.85;18.98;;;461.20;2380.80;;;;;;5073218;28;20033;-88
2021/06/07 05:36:10;;;;;;;24.45;19.30;;;461.20;2380.80;;;;;;5073365;28;20032;-84
2021/06/07 05:38:36;;;;;;;22.30;17.17;;;461.20;2380.80;;;;;;5073168;28;20385;-84
2021/06/07 05:41:03;;;;;;;21.60;16.95;;;461.20;2380.80;;;;;;5073226;28;20020;-83
2021/06/07 05:43:29;;;;;;;19.40;15.75;;;461.30;2380.80;;;;;;5073089;28;20058;-84
2021/06/07 05:45:55;;;;;;;23.98;17.85;;;461.40;2380.80;;;;;;5072941;28;20036;-84
2021/06/07 05:48:21;;;;;;;19.33;17.35;;;461.20;2380.80;;;;;;5073132;28;20026;-85
2021/06/07 05:50:47;;;;;;;19.55;16.15;;;461.20;2380.80;;;;;;5073088;28;20029;-84
2021/06/07 05:53:14;;;;;;;22.92;17.15;;;461.20;2380.80;;;;;;5072863;28;20358;-84
2021/06/07 05:55:42;;;;;;;22.20;17.77;;;461.40;2380.80;;;;;;5073065;28;20104;-86
2021/06/07 05:58:11;;;;;;;21.33;16.35;;;461.40;2380.80;;;;;;5073209;28;20031;-86
2021/06/07 06:00:42;;;;;;;23.15;18.50;;;461.50;2380.80;;;;;;5073336;28;20458;-86
2021/06/07 06:03:08;;;;;;;19.98;17.55;;;461.70;2380.80;;;;;;5073141;28;20116;-84
2021/06/07 06:05:34;;;;;;;25.67;17.80;;;461.70;2380.80;;;;;;5072521;28;20176;-83
2021/06/07 06:08:01;;;;;;;26.98;18.23;;;486.40;2380.80;;;;;;5074177;28;20036;-84
2021/06/07 06:10:26;;;;;;;23.58;18.95;;;486.40;2380.80;;;;;;5074624;28;20036;-84
2021/06/07 06:12:53;;;;;;;26.20;18.52;;;486.50;2380.80;;;;;;5073877;28;20089;-86
2021/06/07 06:15:21;;;;;;;19.60;17.02;;;486.50;2380.80;;;;;;5056386;28;20056;-85
2021/06/07 06:17:47;;;;;;;22.52;17.45;;;486.50;2380.80;;;;;;5072431;28;20033;-83
2021/06/07 06:20:13;;;;;;;21.40;17.10;;;486.60;2380.80;;;;;;5072663;28;20028;-83
2021/06/07 06:22:40;;;;;;;22.50;17.00;;;486.60;2380.80;;;;;;5072179;28;20031;-84
2021/06/07 06:25:08;;;;;;;21.73;19.40;;;486.50;2380.80;;;;;;5072966;28;20123;-85
2021/06/07 06:27:36;;;;;;;18.85;16.85;;;486.60;2380.80;;;;;;5073059;28;20029;-86
2021/06/07 06:30:06;;;;;;;26.35;19.30;;;486.70;2380.80;;;;;;5072268;28;20086;-83
2021/06/07 06:32:31;;;;;;;21.67;17.08;;;486.80;2380.80;;;;;;5072444;28;20025;-85
2021/06/07 06:34:57;;;;;;;23.83;16.30;;;486.80;2380.80;;;;;;5072532;28;20032;-84
2021/06/07 06:37:23;;;;;;;24.33;16.17;;;486.90;2380.80;;;;;;5072396;28;20119;-83
2021/06/07 06:39:49;;;;;;;17.38;15.70;;;487.00;2380.80;;;;;;5072449;28;20374;-84
2021/06/07 06:42:15;;;;;;;19.73;16.80;;;487.00;2380.80;;;;;;5072446;28;20460;-84
2021/06/07 06:44:41;;;;;;;16.55;14.95;;;487.00;2380.80;;;;;;5072279;28;20044;-84
2021/06/07 06:47:07;;;;;;;19.90;15.40;;;487.00;2380.80;;;;;;5072177;28;20024;-83
2021/06/07 06:49:33;;;;;;;17.30;15.50;;;487.10;2380.80;;;;;;5072499;28;20488;-83
2021/06/07 06:51:59;;;;;;;16.85;15.05;;;487.20;2380.80;;;;;;5072103;28;20025;-84
2021/06/07 06:54:26;;;;;;;22.45;16.98;;;487.20;2380.80;;;;;;5072159;28;20047;-83
2021/06/07 06:56:51;;;;;;;20.55;14.95;;;487.30;2380.80;;;;;;5072203;28;20115;-82
2021/06/07 06:59:18;;;;;;;19.08;14.70;;;487.30;2380.80;;;;;;5072077;28;20517;-84
2021/06/07 07:01:44;;;;;;;17.85;15.95;;;487.30;2380.80;;;;;;5072371;28;20027;-83
2021/06/07 07:04:10;;;;;;;20.65;16.50;;;512.00;2380.80;;;;;;5071907;28;20036;-83
2021/06/07 07:06:37;;;;;;;17.27;15.55;;;512.00;2380.80;;;;;;5072937;28;20039;-84
2021/06/07 07:09:04;;;;;;;28.52;17.13;;;512.00;2380.80;;;;;;5075905;28;20035;-84
2021/06/07 07:11:30;;;;;;;20.52;16.30;;;512.20;2380.80;;;;;;5075455;28;20121;-83
2021/06/07 07:13:56;;;;;;;17.40;15.57;;;512.40;2380.80;;;;;;5075495;28;20481;-84
2021/06/07 07:16:22;;;;;;;17.20;15.40;;;512.20;2380.80;;;;;;5075720;28;20089;-82
2021/06/07 07:18:48;;;;;;;16.40;14.70;;;512.30;2380.80;;;;;;5075559;28;20036;-84
2021/06/07 07:21:14;;;;;;;19.88;15.27;;;512.40;2380.80;;;;;;5075632;28;20024;-82
2021/06/07 07:23:39;;;;;;;16.52;14.82;;;512.20;2380.80;;;;;;5075156;28;20036;-80
2021/06/07 07:26:05;;;;;;;18.55;15.80;;;512.00;2380.80;;;;;;5074750;28;20116;-81
2021/06/07 07:28:31;;;;;;;17.77;16.00;;;512.30;2380.80;;;;;;5075247;28;20112;-81
2021/06/07 07:30:57;;;;;;;20.20;16.30;;;512.30;2380.80;;;;;;5074957;28;20024;-78
2021/06/07 07:33:23;;;;;;;17.55;15.75;;;512.50;2380.80;;;;;;5074591;28;20028;-77
2021/06/07 07:35:49;;;;;;;17.23;14.77;;;512.60;2380.80;;;;;;5076170;28;20056;-76
2021/06/07 07:38:15;;;;;;;21.67;16.65;;;512.70;2380.80;;;;;;5074818;28;20048;-77
2021/06/07 07:40:42;;;;;;;24.23;17.30;;;512.90;2380.80;;;;;;5074378;28;20032;-78
2021/06/07 07:43:09;;;;;;;21.52;16.75;;;512.80;2380.80;;;;;;5074619;28;20381;-77
2021/06/07 07:45:39;;;;;;;31.42;21.80;;;512.90;2380.80;;;;;;5074648;28;20028;-77
2021/06/07 07:48:08;;;;;;;26.95;24.02;;;512.80;2380.80;;;;;;5073883;28;20040;-76
2021/06/07 07:50:35;;;;;;;17.70;15.88;;;512.90;2380.80;;;;;;5074469;28;20470;-78
2021/06/07 07:53:01;;;;;;;17.27;15.45;;;537.60;2406.40;;;;;;5074191;28;20021;-78
2021/06/07 07:55:31;;;;;;;18.88;15.15;;;537.70;2406.40;;;;;;5073740;28;20028;-78
2021/06/07 07:57:59;;;;;;;17.45;14.93;;;537.60;2406.40;;;;;;5073886;28;20029;-78
2021/06/07 08:00:27;;;;;;;17.35;15.43;;;537.70;2406.40;;;;;;5074018;28;20390;-77
2021/06/07 08:02:54;;;;;;;22.38;17.75;;;537.80;2406.40;;;;;;5073505;28;20032;-76
2021/06/07 08:05:20;;;;;;;31.92;18.40;;;537.80;2406.40;;;;;;5075100;28;20037;-78
2021/06/07 08:07:46;;;;;;;18.38;15.00;;;537.70;2406.40;;;;;;5073778;28;20537;-78
2021/06/07 08:10:13;;;;;;;17.98;14.82;;;537.60;2406.40;;;;;;5075356;28;20104;-77
2021/06/07 08:12:41;;;;;;;15.95;12.45;;;537.70;2406.40;;;;;;5075132;28;20381;-78
2021/06/07 08:15:09;;;;;;;15.30;11.98;;;537.70;2406.40;;;;;;5073309;28;20060;-80
2021/06/07 08:17:36;;;;;;;16.08;13.50;;;537.60;2406.40;;;;;;5073924;28;20020;-76
2021/06/07 08:20:15;;;;;;;17.50;13.40;;;537.60;2406.40;;;;;;5073687;28;20031;-77
2021/06/07 08:22:41;;;;;;;15.00;12.82;;;537.70;2406.40;;;;;;5055023;28;20029;-75
2021/06/07 08:25:09;;;;;;;13.25;11.65;;;537.70;2406.40;;;;;;5053932;28;20035;-77
2021/06/07 08:27:35;;;;;;;17.73;12.18;;;537.70;2406.40;;;;;;5053871;28;20489;-78
2021/06/07 08:30:01;;;;;;;15.45;11.90;;;537.80;2406.40;;;;;;5053152;28;20021;-77
2021/06/07 08:32:26;;;;;;;12.95;11.70;;;537.90;2406.40;;;;;;5053514;28;20119;-77
2021/06/07 08:34:52;;;;;;;15.02;12.93;;;537.80;2406.40;;;;;;5053686;28;20032;-78
2021/06/07 08:37:18;;;;;;;19.90;11.68;;;537.80;2406.40;;;;;;5054403;28;20029;-77
2021/06/07 08:39:44;;;;;;;15.25;12.35;;;537.80;2406.40;;;;;;5053672;28;20116;-77
2021/06/07 08:42:10;;;;;;;13.82;12.45;;;537.80;2406.40;;;;;;5053676;28;20032;-78
2021/06/07 08:44:38;;;;;;;14.02;12.05;;;537.80;2406.40;;;;;;5053071;28;20037;-79
2021/06/07 08:47:05;;;;;;;12.82;11.63;;;537.90;2406.40;;;;;;5053486;28;20028;-78
2021/06/07 08:49:31;;;;;;;15.85;13.35;;;537.90;2406.40;;;;;;5053143;28;20032;-77
2021/06/07 08:51:56;;;;;;;15.35;13.50;;;537.80;2406.40;;;;;;5053399;28;20059;-78
2021/06/07 08:54:22;;;;;;;18.55;14.93;;;537.80;2406.40;;;;;;5053312;28;20068;-81
2021/06/07 08:56:48;;;;;;;16.48;14.80;;;537.80;2406.40;;;;;;5053117;28;20074;-79
2021/06/07 08:59:15;;;;;;;16.33;13.00;;;537.80;2406.40;;;;;;5054197;28;20029;-79
2021/06/07 09:01:41;;;;;;;17.15;13.77;;;537.70;2406.40;;;;;;5054288;28;20024;-79
2021/06/07 09:04:12;;;;;;;14.45;12.95;;;537.80;2406.40;;;;;;5052588;28;20123;-79
2021/06/07 09:06:40;;;;;;;16.65;12.45;;;537.80;2406.40;;;;;;5053078;28;20029;-79
2021/06/07 09:09:07;;;;;;;14.20;12.10;;;537.80;2406.40;;;;;;5053087;28;20167;-78
2021/06/07 09:11:57;;;;;;;13.50;12.23;;;537.80;2406.40;;;;;;5052420;28;20036;-78
2021/06/07 09:14:30;;;;;;;14.05;12.57;;;537.90;2406.40;;;;;;5052802;28;20498;-79
2021/06/07 09:16:56;;;;;;;17.08;13.02;;;537.90;2406.40;;;;;;5052946;28;20033;-79
2021/06/07 09:19:28;;;;;;;20.05;12.18;;;537.90;2406.40;;;;;;5052572;28;20035;-79
2021/06/07 09:22:17;;;;;;;13.82;12.40;;;537.90;2406.40;;;;;;5052932;28;20032;-79
2021/06/07 09:25:19;;;;;;;18.60;14.45;;;537.90;2406.40;;;;;;5038134;28;20127;-80
2021/06/07 09:28:03;;;;;;;;;;;537.80;2406.40;;;;;;4978551;28;20026;-73
2021/06/07 09:30:28;;;;;;;;;;;537.80;2406.40;;;;;;5065597;28;19912;-73
2021/06/07 09:33:19;;;;;;;18.70;13.70;;;537.80;2406.40;;;;;;5072303;28;19904;-74
2021/06/07 09:35:47;;;;;;;16.00;12.52;;;537.80;2406.40;;;;;;5072584;28;20066;-77
2021/06/07 09:38:13;;;;;;;14.77;12.57;;;537.90;2406.40;;;;;;5072619;28;20424;-77
2021/06/07 09:40:39;;;;;;;12.82;11.63;;;538.20;2406.40;;;;;;5072297;28;20024;-77
2021/06/07 09:43:06;;;;;;;14.93;13.10;;;538.00;2406.40;;;;;;5072458;28;20378;-78
2021/06/07 09:45:54;;;;;;;12.80;11.35;;;538.10;2406.40;;;;;;5072110;28;20029;-78
2021/06/07 09:48:20;;;;;;;13.63;10.35;;;538.10;2406.40;;;;;;5072577;28;20354;-78
2021/06/07 09:50:54;;;;;;;13.43;12.13;;;538.20;2406.40;;;;;;5073745;28;20040;-77
2021/06/07 09:53:57;;;;;;;13.60;12.25;;;538.10;2406.40;;;;;;5070196;28;20024;-79
2021/06/07 09:56:24;;;;;;;16.90;12.77;;;538.20;2406.40;;;;;;5071595;28;20401;-79
2021/06/07 09:58:50;;;;;;;15.27;13.77;;;538.30;2406.40;;;;;;5072061;28;20036;-80
2021/06/07 10:01:20;;;;;;;14.43;12.68;;;538.40;2406.40;;;;;;5071914;28;20025;-79
2021/06/07 10:03:57;;;;;;;15.60;13.13;;;538.40;2406.40;;;;;;5072340;28;20032;-80
2021/06/07 10:06:37;;;;;;;14.88;13.25;;;538.50;2406.40;;;;;;5072298;28;20024;-79
2021/06/07 10:09:08;;;;;;;14.60;12.65;;;563.20;2432.00;;;;;;5072308;28;20076;-79
2021/06/07 10:11:37;;;;;;;13.68;12.27;;;563.20;2432.00;;;;;;5073583;28;20351;-79
2021/06/07 10:14:20;;;;;;;13.32;11.90;;;563.40;2432.00;;;;;;5071538;28;20052;-80
2021/06/07 10:16:57;;;;;;;18.05;13.85;;;563.50;2432.00;;;;;;5073526;28;20031;-78
2021/06/07 10:19:33;;;;;;;14.73;13.32;;;563.60;2432.00;;;;;;5072159;28;20033;-79
2021/06/07 10:22:01;;;;;;;16.83;13.35;;;563.60;2432.00;;;;;;5071896;28;20027;-79
2021/06/07 10:24:27;;;;;;;16.45;13.57;;;563.70;2432.00;;;;;;5071940;28;20072;-79
2021/06/07 10:26:53;;;;;;;14.43;12.93;;;563.70;2432.00;;;;;;5072100;28;20082;-80
2021/06/07 10:29:19;;;;;;;14.73;13.23;;;563.60;2432.00;;;;;;5071661;28;20040;-79
2021/06/07 10:31:46;;;;;;;16.52;13.57;;;563.60;2432.00;;;;;;5071853;28;20548;-79
2021/06/07 10:34:12;;;;;;;15.10;13.60;;;563.90;2432.00;;;;;;5071858;28;20123;-79
2021/06/07 10:36:49;;;;;;;15.10;13.57;;;563.80;2432.00;;;;;;5071518;28;20121;-79
2021/06/07 10:39:19;;;;;;;17.73;12.52;;;563.70;2432.00;;;;;;5071992;28;20119;-78
2021/06/07 10:41:48;;;;;;;14.55;13.20;;;563.70;2432.00;;;;;;5075816;28;20048;-78
2021/06/07 10:44:14;;;;;;;13.48;11.85;;;563.80;2432.00;;;;;;5075792;28;20473;-76
2021/06/07 10:46:43;;;;;;;15.38;12.95;;;563.90;2432.00;;;;;;5075575;28;20457;-79
2021/06/07 10:49:44;;;;;;;15.15;13.63;;;563.90;2432.00;;;;;;5075846;28;20020;-75
2021/06/07 10:52:19;;;;;;;14.85;13.20;;;564.00;2432.00;;;;;;5014703;28;20037;-76
2021/06/07 10:55:04;;;;;;;15.68;13.85;;;564.10;2432.00;;;;;;5046909;28;20550;-75
2021/06/07 10:57:38;;;;;;;16.58;14.13;;;588.90;2432.00;;;;;;5055158;28;20370;-76
2021/06/07 11:00:22;;;;;;;15.63;14.10;;;589.20;2432.00;;;;;;5057118;28;20029;-76
2021/06/07 11:02:49;;;;;;;14.30;12.80;;;589.40;2432.00;;;;;;5056599;28;20462;-77
2021/06/07 11:05:38;;;;;;;17.45;14.55;;;589.30;2432.00;;;;;;5056260;28;20029;-77
2021/06/07 11:08:30;;;;;;;16.77;13.80;;;589.30;2432.00;;;;;;5056763;28;20031;-77
2021/06/07 11:11:21;;;;;;;16.40;13.65;;;589.30;2432.00;;;;;;5073685;28;20442;-78
2021/06/07 11:14:00;;;;;;;15.30;13.80;;;589.10;2432.00;;;;;;5075493;28;20056;-77
2021/06/07 11:16:46;;;;;;;13.85;12.38;;;589.10;2432.00;;;;;;5074541;28;20445;-77
2021/06/07 11:19:14;;;;;;;17.95;14.13;;;589.30;2432.00;;;;;;5076841;28;20048;-76
2021/06/07 11:21:43;;;;;;;20.67;13.30;;;589.30;2432.00;;;;;;5075171;28;20016;-76
2021/06/07 11:24:34;;;;;;;17.02;12.60;;;589.40;2432.00;;;;;;5074676;28;20381;-76
2021/06/07 11:27:04;;;;;;;15.25;12.27;;;589.30;2432.00;;;;;;5075052;28;20358;-76
2021/06/07 11:29:31;;;;;;;14.55;13.05;;;589.10;2432.00;;;;;;5074992;28;20021;-76
2021/06/07 11:32:10;;;;;;;13.95;12.48;;;589.30;2432.00;;;;;;5076312;28;20035;-76
2021/06/07 11:34:38;;;;;;;14.75;13.07;;;589.30;2432.00;;;;;;5075005;28;20032;-77
2021/06/07 11:37:05;;;;;;;15.60;14.05;;;589.40;2432.00;;;;;;5076184;28;20028;-76
2021/06/07 11:39:49;;;;;;;15.50;13.18;;;564.00;2432.00;;;;;;5076124;28;20074;-76
2021/06/07 11:42:17;;;;;;;35.50;14.05;;;614.40;2432.00;;;;;;5074544;28;20031;-76
2021/06/07 11:44:43;;;;;;;50.85;16.45;;;614.50;2432.00;;;;;;5074351;28;20039;-77
2021/06/07 11:47:27;;;;;;;55.75;15.82;;;614.70;2432.00;;;;;;5074964;28;20025;-76
2021/06/07 11:50:29;;;;;;;46.90;14.65;;;614.70;2432.00;;;;;;5074667;28;20078;-77
2021/06/07 11:52:55;;;;;;;22.25;12.23;;;614.80;2432.00;;;;;;5073702;28;20028;-76
2021/06/07 11:55:33;;;;;;;29.00;12.77;;;615.10;2432.00;;;;;;5074580;28;20071;-76
2021/06/07 11:58:12;;;;;;;29.75;13.15;;;615.10;2432.00;;;;;;5075851;28;20024;-76
2021/06/07 12:00:47;;;;;;;25.50;14.10;;;615.30;2432.00;;;;;;5073955;28;20134;-76
2021/06/07 12:03:16;;;;;;;19.20;13.00;;;640.10;2432.00;;;;;;5074284;28;20031;-77
2021/06/07 12:05:42;;;;;;;16.23;12.68;;;640.20;2432.00;;;;;;5073387;28;20024;-75
2021/06/07 12:08:11;;;;;;;21.05;13.85;;;640.00;2432.00;;;;;;5070863;28;20048;-76